createdAt,value
2023-03-30T00:02:12.302Z,98731.13
2023-03-30T00:04:42.661Z,98732.09
2023-03-30T00:07:10.518Z,98739.73
2023-03-30T00:09:42.079Z,98741.71
2023-03-30T00:12:10.347Z,98742.91
2023-03-30T00:14:37.702Z,98739.50
2023-03-30T00:17:09.575Z,98738.42
2023-03-30T00:19:37.326Z,98739.99
2023-03-30T00:22:06.217Z,98737.63
2023-03-30T00:24:34.185Z,98736.42
2023-03-30T00:27:01.886Z,98738.27
2023-03-30T00:29:29.213Z,98741.08
2023-03-30T00:31:57.156Z,98737.20
2023-03-30T00:34:25.138Z,98736.21
2023-03-30T00:36:57.757Z,98734.11
2023-03-30T00:39:26.171Z,98733.15
2023-03-30T00:41:53.548Z,98738.91
2023-03-30T00:44:40.561Z,98750.20
2023-03-30T00:47:07.915Z,98748.02
2023-03-30T00:49:35.505Z,98751.88
2023-03-30T00:52:04.973Z,98746.43
2023-03-30T00:54:32.428Z,98749.54
2023-03-30T00:56:59.887Z,98747.74
2023-03-30T00:59:27.388Z,98743.55
2023-03-30T01:01:54.868Z,98738.99
2023-03-30T01:04:25.581Z,98742.06
2023-03-30T01:06:54.943Z,98739.88
2023-03-30T01:09:22.926Z,98737.08
2023-03-30T01:11:50.920Z,98732.30
2023-03-30T01:14:19.220Z,98739.39
2023-03-30T01:16:55.520Z,98733.89
2023-03-30T01:19:43.252Z,98740.10
2023-03-30T01:22:30.270Z,98737.39
2023-03-30T01:24:58.260Z,98727.90
2023-03-30T01:27:39.003Z,98715.37
2023-03-30T01:30:14.286Z,98700.21
2023-03-30T01:33:01.322Z,98688.08
2023-03-30T01:35:35.721Z,98681.91
2023-03-30T01:38:22.283Z,98682.42
2023-03-30T01:40:53.030Z,98672.11
2023-03-30T01:43:25.514Z,98668.90
2023-03-30T01:45:55.611Z,98668.52
2023-03-30T01:48:25.933Z,98667.68
2023-03-30T01:50:54.013Z,98667.51
2023-03-30T01:53:40.201Z,98662.51
2023-03-30T01:56:08.989Z,98661.92
2023-03-30T01:58:38.494Z,98652.38
2023-03-30T02:01:10.465Z,98647.58
2023-03-30T02:03:39.317Z,98634.81
2023-03-30T02:06:26.153Z,98625.48
2023-03-30T02:08:54.429Z,98614.79
2023-03-30T02:11:23.222Z,98606.48
2023-03-30T02:13:50.878Z,98599.50
2023-03-30T02:16:24.226Z,98595.69
2023-03-30T02:18:54.188Z,98593.88
2023-03-30T02:21:22.158Z,98587.77
2023-03-30T02:23:49.720Z,98583.11
2023-03-30T02:26:17.074Z,98576.85
2023-03-30T02:28:51.802Z,98573.92
2023-03-30T02:31:19.268Z,98569.75
2023-03-30T02:34:05.052Z,98574.81
2023-03-30T02:36:37.007Z,98570.58
2023-03-30T02:39:06.416Z,98574.03
2023-03-30T02:41:36.421Z,98581.70
2023-03-30T02:44:27.431Z,98584.44
2023-03-30T02:47:08.580Z,98582.48
2023-03-30T02:49:41.496Z,98583.41
2023-03-30T02:52:33.260Z,98586.76
2023-03-30T02:55:04.361Z,98584.57
2023-03-30T02:57:56.601Z,98587.96
2023-03-30T03:00:53.382Z,98592.08
2023-03-30T03:03:34.451Z,98598.05
2023-03-30T03:06:04.851Z,98601.94
2023-03-30T03:08:36.816Z,98613.16
2023-03-30T03:11:05.116Z,98617.50
2023-03-30T03:13:38.713Z,98625.02
2023-03-30T03:16:07.781Z,98626.27
2023-03-30T03:18:39.432Z,98623.83
2023-03-30T03:21:08.529Z,98628.13
2023-03-30T03:23:36.600Z,98633.23
2023-03-30T03:26:05.590Z,98632.18
2023-03-30T03:28:34.425Z,98624.88
2023-03-30T03:31:06.289Z,98624.10
2023-03-30T03:33:35.534Z,98620.25
2023-03-30T03:36:24.907Z,98626.85
2023-03-30T03:38:53.905Z,98635.33
2023-03-30T03:41:21.372Z,98643.98
2023-03-30T03:43:48.708Z,98653.60
2023-03-30T03:46:17.207Z,98656.46
2023-03-30T03:48:47.120Z,98652.65
2023-03-30T03:51:16.814Z,98658.38
2023-03-30T03:53:49.398Z,98657.89
2023-03-30T03:56:16.903Z,98666.35
2023-03-30T03:58:46.656Z,98672.86
2023-03-30T04:01:15.547Z,98674.02
2023-03-30T04:03:44.145Z,98679.05
2023-03-30T04:06:13.562Z,98678.44
2023-03-30T04:08:41.485Z,98685.25
2023-03-30T04:11:23.912Z,98692.52
2023-03-30T04:14:06.019Z,98701.73
2023-03-30T04:16:45.878Z,98707.02
2023-03-30T04:19:37.300Z,98716.20
2023-03-30T04:22:23.885Z,98728.32
2023-03-30T04:25:05.299Z,98745.30
2023-03-30T04:28:08.458Z,98771.42
2023-03-30T04:31:12.473Z,98796.16
2023-03-30T04:34:02.198Z,98815.02
2023-03-30T04:37:06.785Z,98826.21
2023-03-30T04:40:07.513Z,98836.69
2023-03-30T04:42:55.147Z,98843.00
2023-03-30T04:45:41.691Z,98849.31
2023-03-30T04:48:29.281Z,98855.45
2023-03-30T04:51:19.802Z,98857.73
2023-03-30T04:54:09.050Z,98855.08
2023-03-30T04:56:55.059Z,98855.79
2023-03-30T04:59:37.650Z,98858.23
2023-03-30T05:02:23.712Z,98857.23
2023-03-30T05:05:09.537Z,98855.89
2023-03-30T05:07:56.926Z,98852.16
2023-03-30T05:10:33.862Z,98853.32
2023-03-30T05:13:16.643Z,98856.70
2023-03-30T05:16:07.513Z,98858.38
2023-03-30T05:18:58.047Z,98862.77
2023-03-30T05:21:41.072Z,98865.08
2023-03-30T05:24:40.988Z,98872.19
2023-03-30T05:27:18.116Z,98875.79
2023-03-30T05:29:51.259Z,98882.23
2023-03-30T05:32:24.907Z,98887.80
2023-03-30T05:35:25.907Z,98880.71
2023-03-30T05:38:14.460Z,98879.41
2023-03-30T05:41:09.329Z,98873.83
2023-03-30T05:44:04.560Z,98885.23
2023-03-30T05:46:50.682Z,98880.39
2023-03-30T05:49:41.563Z,98874.91
2023-03-30T05:52:28.473Z,98876.39
2023-03-30T05:55:07.534Z,98882.04
2023-03-30T05:57:49.470Z,98889.95
2023-03-30T06:00:33.097Z,98893.41
2023-03-30T06:03:12.678Z,98894.09
2023-03-30T06:05:43.408Z,98891.36
2023-03-30T06:08:11.681Z,98900.20
2023-03-30T06:10:41.802Z,98909.83
2023-03-30T06:13:10.721Z,98911.91
2023-03-30T06:15:50.535Z,98910.35
2023-03-30T06:18:22.294Z,98913.60
2023-03-30T06:20:55.824Z,98915.74
2023-03-30T06:23:24.478Z,98914.84
2023-03-30T06:25:54.195Z,98918.23
2023-03-30T06:28:28.308Z,98926.88
2023-03-30T06:30:57.138Z,98929.86
2023-03-30T06:33:25.831Z,98932.11
2023-03-30T06:35:57.652Z,98934.36
2023-03-30T06:38:25.496Z,98939.23
2023-03-30T06:40:53.873Z,98946.79
2023-03-30T06:43:24.001Z,98945.55
2023-03-30T06:46:12.313Z,98946.16
2023-03-30T06:48:43.177Z,98943.73
2023-03-30T06:51:36.865Z,98945.80
2023-03-30T06:54:04.979Z,98940.90
2023-03-30T06:56:33.226Z,98943.55
2023-03-30T06:59:19.796Z,98947.61
2023-03-30T07:02:20.739Z,98953.73
2023-03-30T07:05:15.658Z,98962.60
2023-03-30T07:07:56.515Z,98966.80
2023-03-30T07:10:25.309Z,98965.25
2023-03-30T07:12:53.681Z,98970.07
2023-03-30T07:15:22.267Z,98973.73
2023-03-30T07:17:50.266Z,98974.38
2023-03-30T07:20:21.784Z,98968.45
2023-03-30T07:23:12.999Z,98962.80
2023-03-30T07:25:41.526Z,98966.00
2023-03-30T07:28:14.771Z,98963.55
2023-03-30T07:30:42.359Z,98963.39
2023-03-30T07:33:11.858Z,98959.80
2023-03-30T07:35:46.935Z,98955.60
2023-03-30T07:38:17.095Z,98950.73
2023-03-30T07:40:49.971Z,98957.75
2023-03-30T07:43:17.977Z,98958.46
2023-03-30T07:45:48.788Z,98960.79
2023-03-30T07:48:23.929Z,98956.13
2023-03-30T07:50:58.743Z,98952.25
2023-03-30T07:53:29.883Z,98950.08
2023-03-30T07:55:58.291Z,98945.11
2023-03-30T07:58:31.699Z,98945.28
2023-03-30T08:01:01.587Z,98945.84
2023-03-30T08:03:47.826Z,98947.98
2023-03-30T08:06:16.149Z,98948.97
2023-03-30T08:08:47.501Z,98945.94
2023-03-30T08:11:16.114Z,98944.44
2023-03-30T08:13:45.072Z,98948.59
2023-03-30T08:16:12.550Z,98950.95
2023-03-30T08:18:43.265Z,98950.84
2023-03-30T08:21:10.569Z,98947.57
2023-03-30T08:23:38.480Z,98942.48
2023-03-30T08:26:05.937Z,98942.40
2023-03-30T08:28:33.741Z,98945.41
2023-03-30T08:31:05.459Z,98951.23
2023-03-30T08:33:36.398Z,98963.17
2023-03-30T08:36:05.799Z,98960.14
2023-03-30T08:38:33.148Z,98960.33
2023-03-30T08:41:01.627Z,98960.66
2023-03-30T08:43:36.769Z,98961.17
2023-03-30T08:46:04.581Z,98958.94
2023-03-30T08:48:33.218Z,98958.34
2023-03-30T08:51:01.604Z,98973.64
2023-03-30T08:53:29.776Z,98982.50
2023-03-30T08:55:58.701Z,98986.00
2023-03-30T08:58:39.636Z,98995.73
2023-03-30T09:01:27.223Z,98996.29
2023-03-30T09:04:02.308Z,99007.37
2023-03-30T09:06:50.954Z,99010.21
2023-03-30T09:09:19.057Z,99018.96
2023-03-30T09:11:48.049Z,99018.84
2023-03-30T09:14:18.807Z,99020.82
2023-03-30T09:16:50.815Z,99021.58
2023-03-30T09:19:22.771Z,99015.92
2023-03-30T09:21:50.340Z,99014.36
2023-03-30T09:24:18.440Z,99013.29
2023-03-30T09:26:53.436Z,99014.06
2023-03-30T09:29:28.196Z,99011.83
2023-03-30T09:32:05.608Z,99006.19
2023-03-30T09:34:39.067Z,98999.89
2023-03-30T09:37:08.553Z,99000.27
2023-03-30T09:39:37.447Z,98996.87
2023-03-30T09:42:13.210Z,98991.27
2023-03-30T09:44:47.824Z,98994.30
2023-03-30T09:47:21.163Z,98992.88
2023-03-30T09:49:48.474Z,98987.52
2023-03-30T09:52:20.470Z,98983.60
2023-03-30T09:54:51.493Z,98982.01
2023-03-30T09:57:24.234Z,98979.78
2023-03-30T09:59:55.400Z,98975.48
2023-03-30T10:02:25.105Z,98974.01
2023-03-30T10:04:53.586Z,98974.34
2023-03-30T10:07:21.977Z,98973.25
2023-03-30T10:09:52.049Z,98962.63
2023-03-30T10:12:19.468Z,98967.67
2023-03-30T10:14:47.110Z,98969.38
2023-03-30T10:17:19.777Z,98970.61
2023-03-30T10:19:51.728Z,98969.14
2023-03-30T10:22:22.885Z,98955.23
2023-03-30T10:24:51.670Z,98955.48
2023-03-30T10:27:19.233Z,98953.73
2023-03-30T10:29:48.259Z,98947.77
2023-03-30T10:32:15.881Z,98941.54
2023-03-30T10:35:01.403Z,98937.48
2023-03-30T10:37:31.174Z,98934.13
2023-03-30T10:39:59.249Z,98932.01
2023-03-30T10:42:27.352Z,98928.55
2023-03-30T10:44:55.393Z,98920.61
2023-03-30T10:47:26.036Z,98919.87
2023-03-30T10:49:56.954Z,98911.95
2023-03-30T10:52:28.096Z,98905.48
2023-03-30T10:55:02.926Z,98897.45
2023-03-30T10:57:50.657Z,98893.56
2023-03-30T11:00:24.103Z,98891.19
2023-03-30T11:02:53.442Z,98886.63
2023-03-30T11:05:22.554Z,98885.86
2023-03-30T11:07:56.665Z,98880.86
2023-03-30T11:10:32.054Z,98876.69
2023-03-30T11:13:03.454Z,98869.98
2023-03-30T11:15:35.727Z,98866.47
2023-03-30T11:18:09.646Z,98868.62
2023-03-30T11:20:39.859Z,98863.19
2023-03-30T11:23:18.080Z,98864.13
2023-03-30T11:25:49.617Z,98858.33
2023-03-30T11:28:35.619Z,98854.39
2023-03-30T11:31:04.926Z,98855.30
2023-03-30T11:33:46.624Z,98855.02
2023-03-30T11:36:18.273Z,98850.58
2023-03-30T11:38:51.902Z,98852.52
2023-03-30T11:41:24.425Z,98848.13
2023-03-30T11:43:55.943Z,98844.14
2023-03-30T11:46:34.153Z,98842.69
2023-03-30T11:49:04.524Z,98843.35
2023-03-30T11:51:32.377Z,98838.96
2023-03-30T11:54:07.419Z,98837.45
2023-03-30T11:56:54.124Z,98835.07
2023-03-30T11:59:21.646Z,98829.79
2023-03-30T12:01:52.672Z,98829.95
2023-03-30T12:04:27.489Z,98824.44
2023-03-30T12:06:59.717Z,98822.08
2023-03-30T12:09:33.095Z,98820.95
2023-03-30T12:12:21.361Z,98816.96
2023-03-30T12:14:55.941Z,98817.44
2023-03-30T12:17:46.729Z,98817.30
2023-03-30T12:20:20.802Z,98822.00
2023-03-30T12:22:51.222Z,98820.77
2023-03-30T12:25:22.926Z,98819.16
2023-03-30T12:27:52.063Z,98820.71
2023-03-30T12:30:26.391Z,98821.36
2023-03-30T12:32:56.524Z,98823.38
2023-03-30T12:35:44.546Z,98825.76
2023-03-30T12:38:19.244Z,98826.86
2023-03-30T12:40:52.169Z,98818.60
2023-03-30T12:43:25.534Z,98815.66
2023-03-30T12:46:01.823Z,98814.46
2023-03-30T12:48:39.107Z,98814.84
2023-03-30T12:51:19.496Z,98814.80
2023-03-30T12:53:52.965Z,98814.79
2023-03-30T12:56:31.083Z,98811.34
2023-03-30T12:59:02.605Z,98809.50
2023-03-30T13:01:30.307Z,98806.11
2023-03-30T13:03:59.333Z,98802.36
2023-03-30T13:06:34.567Z,98801.11
2023-03-30T13:09:12.829Z,98800.64
2023-03-30T13:11:42.595Z,98805.48
2023-03-30T13:14:25.867Z,98804.73
2023-03-30T13:16:53.262Z,98798.73
2023-03-30T13:19:26.008Z,98798.52
2023-03-30T13:21:57.456Z,98801.80
2023-03-30T13:24:26.066Z,98804.63
2023-03-30T13:26:54.122Z,98804.66
2023-03-30T13:29:22.021Z,98803.56
2023-03-30T13:31:57.766Z,98807.43
2023-03-30T13:34:33.277Z,98801.36
2023-03-30T13:37:00.925Z,98799.66
2023-03-30T13:39:55.005Z,98796.05
2023-03-30T13:42:37.216Z,98793.13
2023-03-30T13:45:08.552Z,98790.70
2023-03-30T13:47:39.254Z,98790.15
2023-03-30T13:50:11.967Z,98786.02
2023-03-30T13:52:40.965Z,98784.36
2023-03-30T13:55:09.979Z,98777.23
2023-03-30T13:57:43.759Z,98775.58
2023-03-30T14:00:45.269Z,98777.53
2023-03-30T14:03:32.306Z,98775.77
2023-03-30T14:06:03.812Z,98774.96
2023-03-30T14:08:36.255Z,98774.06
2023-03-30T14:11:26.745Z,98772.76
2023-03-30T14:13:56.649Z,98771.07
2023-03-30T14:16:24.941Z,98768.77
2023-03-30T14:19:08.113Z,98773.98
2023-03-30T14:21:37.623Z,98767.81
2023-03-30T14:24:05.949Z,98768.52
2023-03-30T14:26:34.021Z,98766.25
2023-03-30T14:29:08.031Z,98767.66
2023-03-30T14:31:39.735Z,98764.52
2023-03-30T14:34:30.524Z,98767.39
2023-03-30T14:36:59.217Z,98761.58
2023-03-30T14:39:27.148Z,98759.27
2023-03-30T14:41:56.354Z,98760.57
2023-03-30T14:44:24.355Z,98754.83
2023-03-30T14:46:52.519Z,98753.59
2023-03-30T14:49:22.190Z,98749.91
2023-03-30T14:51:53.551Z,98754.02
2023-03-30T14:54:21.819Z,98756.21
2023-03-30T14:56:57.426Z,98757.09
2023-03-30T14:59:26.252Z,98758.62
2023-03-30T15:01:54.534Z,98758.04
2023-03-30T15:04:25.100Z,98754.40
2023-03-30T15:06:53.274Z,98745.77
2023-03-30T15:09:22.762Z,98751.10
2023-03-30T15:11:51.556Z,98755.48
2023-03-30T15:14:20.343Z,98754.83
2023-03-30T15:16:50.212Z,98759.92
2023-03-30T15:19:21.081Z,98753.40
2023-03-30T15:21:50.149Z,98755.54
2023-03-30T15:24:17.710Z,98754.08
2023-03-30T15:26:46.088Z,98756.60
2023-03-30T15:29:14.398Z,98756.55
2023-03-30T15:31:44.699Z,98760.65
2023-03-30T15:34:16.393Z,98760.16
2023-03-30T15:36:44.206Z,98760.80
2023-03-30T15:39:20.876Z,98770.13
2023-03-30T15:41:49.258Z,98769.44
2023-03-30T15:44:20.198Z,98767.02
2023-03-30T15:46:51.298Z,98768.21
2023-03-30T15:49:19.204Z,98763.95
2023-03-30T15:51:51.911Z,98766.90
2023-03-30T15:54:20.976Z,98765.39
2023-03-30T15:56:59.614Z,98762.96
2023-03-30T15:59:30.371Z,98765.48
2023-03-30T16:02:01.409Z,98767.67
2023-03-30T16:04:30.471Z,98761.42
2023-03-30T16:06:57.830Z,98763.19
2023-03-30T16:09:25.276Z,98761.45
2023-03-30T16:11:55.225Z,98763.13
2023-03-30T16:14:22.956Z,98768.48
2023-03-30T16:16:50.953Z,98767.55
2023-03-30T16:19:19.120Z,98766.61
2023-03-30T16:21:46.720Z,98770.06
2023-03-30T16:24:14.315Z,98773.93
2023-03-30T16:26:41.876Z,98781.00
2023-03-30T16:29:21.141Z,98784.59
2023-03-30T16:31:50.111Z,98785.98
2023-03-30T16:34:17.808Z,98785.48
2023-03-30T16:36:46.039Z,98791.30
2023-03-30T16:39:17.391Z,98789.16
2023-03-30T16:41:50.729Z,98786.87
2023-03-30T16:44:19.571Z,98795.85
2023-03-30T16:46:47.743Z,98793.05
2023-03-30T16:49:17.453Z,98787.70
2023-03-30T16:51:45.055Z,98783.02
2023-03-30T16:54:30.479Z,98779.63
2023-03-30T16:57:01.381Z,98782.84
2023-03-30T16:59:34.320Z,98779.85
2023-03-30T17:02:02.734Z,98774.82
2023-03-30T17:04:30.454Z,98773.33
2023-03-30T17:06:58.430Z,98768.86
2023-03-30T17:09:26.799Z,98762.89
2023-03-30T17:11:54.363Z,98761.23
2023-03-30T17:14:22.940Z,98752.54
2023-03-30T17:16:50.232Z,98745.61
2023-03-30T17:19:21.342Z,98743.39
2023-03-30T17:21:48.832Z,98734.23
2023-03-30T17:24:16.554Z,98727.81
2023-03-30T17:26:44.967Z,98723.59
2023-03-30T17:29:12.241Z,98715.38
2023-03-30T17:31:45.072Z,98710.95
2023-03-30T17:34:13.342Z,98704.31
2023-03-30T17:36:40.902Z,98697.63
2023-03-30T17:39:11.790Z,98690.43
2023-03-30T17:41:39.401Z,98683.45
2023-03-30T17:44:09.927Z,98682.13
2023-03-30T17:46:39.295Z,98673.93
2023-03-30T17:49:11.396Z,98666.17
2023-03-30T17:51:39.126Z,98660.87
2023-03-30T17:54:07.848Z,98654.73
2023-03-30T17:56:35.306Z,98649.27
2023-03-30T17:59:02.838Z,98641.06
2023-03-30T18:01:30.552Z,98634.29
2023-03-30T18:03:58.364Z,98635.05
2023-03-30T18:06:25.950Z,98633.86
2023-03-30T18:08:54.147Z,98635.60
2023-03-30T18:11:22.119Z,98631.52
2023-03-30T18:13:51.902Z,98625.13
2023-03-30T18:16:24.006Z,98621.02
2023-03-30T18:18:51.835Z,98620.60
2023-03-30T18:21:19.607Z,98616.27
2023-03-30T18:23:48.092Z,98619.19
2023-03-30T18:26:15.692Z,98616.24
2023-03-30T18:28:46.299Z,98605.60
2023-03-30T18:31:15.286Z,98606.38
2023-03-30T18:33:42.820Z,98595.80
2023-03-30T18:36:12.294Z,98590.67
2023-03-30T18:38:41.229Z,98587.55
2023-03-30T18:41:09.592Z,98588.42
2023-03-30T18:43:38.454Z,98583.06
2023-03-30T18:46:06.031Z,98580.65
2023-03-30T18:48:33.708Z,98574.48
2023-03-30T18:51:02.592Z,98571.35
2023-03-30T18:53:30.075Z,98564.25
2023-03-30T18:55:59.787Z,98557.88
2023-03-30T18:58:28.232Z,98553.47
2023-03-30T19:00:57.751Z,98546.17
2023-03-30T19:03:27.074Z,98540.33
2023-03-30T19:05:54.987Z,98534.14
2023-03-30T19:08:23.290Z,98531.80
2023-03-30T19:10:51.453Z,98527.52
2023-03-30T19:13:19.281Z,98520.65
2023-03-30T19:15:49.343Z,98508.85
2023-03-30T19:18:20.484Z,98502.28
2023-03-30T19:20:50.306Z,98498.05
2023-03-30T19:23:21.463Z,98495.06
2023-03-30T19:25:49.323Z,98493.21
2023-03-30T19:28:17.057Z,98486.27
2023-03-30T19:30:46.629Z,98485.23
2023-03-30T19:33:15.874Z,98483.84
2023-03-30T19:35:48.098Z,98486.50
2023-03-30T19:38:16.500Z,98485.13
2023-03-30T19:40:44.186Z,98482.70
2023-03-30T19:43:11.563Z,98481.13
2023-03-30T19:45:39.287Z,98476.86
2023-03-30T19:48:06.951Z,98472.80
2023-03-30T19:50:34.800Z,98472.60
2023-03-30T19:53:08.857Z,98469.10
2023-03-30T19:55:36.713Z,98468.23
2023-03-30T19:58:04.220Z,98466.90
2023-03-30T20:00:34.384Z,98469.65
2023-03-30T20:03:10.458Z,98469.30
2023-03-30T20:05:38.410Z,98468.52
2023-03-30T20:08:16.991Z,98466.91
2023-03-30T20:10:49.557Z,98464.25
2023-03-30T20:13:21.464Z,98459.34
2023-03-30T20:15:49.494Z,98456.69
2023-03-30T20:18:18.018Z,98456.39
2023-03-30T20:20:45.787Z,98459.61
2023-03-30T20:23:13.745Z,98460.77
2023-03-30T20:25:45.958Z,98462.25
2023-03-30T20:28:13.675Z,98466.48
2023-03-30T20:30:41.137Z,98471.09
2023-03-30T20:33:08.893Z,98476.38
2023-03-30T20:35:37.776Z,98479.31
2023-03-30T20:38:05.659Z,98482.20
2023-03-30T20:40:35.819Z,98485.86
2023-03-30T20:43:09.479Z,98496.19
2023-03-30T20:45:45.415Z,98497.15
2023-03-30T20:48:29.888Z,98501.55
2023-03-30T20:50:57.463Z,98512.02
2023-03-30T20:53:25.168Z,98507.05
2023-03-30T20:55:52.948Z,98511.62
2023-03-30T20:58:21.979Z,98522.02
2023-03-30T21:00:51.491Z,98527.54
2023-03-30T21:03:20.189Z,98529.83
2023-03-30T21:05:47.439Z,98524.86
2023-03-30T21:08:17.432Z,98526.05
2023-03-30T21:10:44.994Z,98523.77
2023-03-30T21:13:14.557Z,98520.41
2023-03-30T21:15:42.772Z,98515.10
2023-03-30T21:18:10.577Z,98515.58
2023-03-30T21:20:38.403Z,98518.39
2023-03-30T21:23:06.056Z,98519.28
2023-03-30T21:25:34.054Z,98518.09
2023-03-30T21:28:07.333Z,98519.30
2023-03-30T21:30:35.316Z,98525.77
2023-03-30T21:33:03.441Z,98523.98
2023-03-30T21:35:31.259Z,98521.34
2023-03-30T21:37:58.993Z,98526.62
2023-03-30T21:40:26.755Z,98532.11
2023-03-30T21:42:54.109Z,98530.05
2023-03-30T21:45:21.766Z,98535.54
2023-03-30T21:47:49.865Z,98539.63
2023-03-30T21:50:17.605Z,98542.20
2023-03-30T21:52:45.162Z,98547.45
2023-03-30T21:55:12.411Z,98553.71
2023-03-30T21:57:39.966Z,98562.84
2023-03-30T22:00:09.595Z,98571.45
2023-03-30T22:03:00.165Z,98578.14
2023-03-30T22:05:30.087Z,98587.47
2023-03-30T22:07:57.577Z,98591.42
2023-03-30T22:10:25.469Z,98599.17
2023-03-30T22:12:54.418Z,98604.67
2023-03-30T22:15:21.970Z,98610.73
2023-03-30T22:17:49.181Z,98616.36
2023-03-30T22:20:17.798Z,98621.59
2023-03-30T22:22:45.666Z,98622.58
2023-03-30T22:25:13.058Z,98627.30
2023-03-30T22:27:40.373Z,98634.97
2023-03-30T22:30:08.092Z,98640.42
2023-03-30T22:32:40.927Z,98645.30
2023-03-30T22:35:08.883Z,98654.27
2023-03-30T22:37:36.568Z,98659.55
2023-03-30T22:40:05.651Z,98662.83
2023-03-30T22:42:33.303Z,98671.48
2023-03-30T22:45:00.762Z,98674.61
2023-03-30T22:47:28.352Z,98674.60
2023-03-30T22:49:55.918Z,98673.50
2023-03-30T22:52:23.645Z,98672.76
2023-03-30T22:54:51.103Z,98677.97
2023-03-30T22:57:18.508Z,98676.86
2023-03-30T22:59:46.252Z,98680.99
2023-03-30T23:02:16.332Z,98674.14
2023-03-30T23:04:48.293Z,98680.92
2023-03-30T23:07:15.579Z,98677.48
2023-03-30T23:09:46.893Z,98673.88
2023-03-30T23:12:14.656Z,98674.45
2023-03-30T23:14:42.629Z,98667.34
2023-03-30T23:17:10.024Z,98663.10
2023-03-30T23:19:37.681Z,98654.85
2023-03-30T23:22:05.708Z,98645.88
2023-03-30T23:24:33.392Z,98642.73
2023-03-30T23:27:00.716Z,98640.13
2023-03-30T23:29:32.571Z,98638.13
2023-03-30T23:32:00.142Z,98637.61
2023-03-30T23:34:27.904Z,98634.00
2023-03-30T23:36:55.993Z,98633.15
2023-03-30T23:39:25.618Z,98629.42
2023-03-30T23:41:53.351Z,98623.95
2023-03-30T23:44:20.404Z,98621.95
2023-03-30T23:46:47.478Z,98622.90
2023-03-30T23:49:14.490Z,98624.33
2023-03-30T23:51:41.759Z,98619.33
2023-03-30T23:54:08.789Z,98618.81
2023-03-30T23:56:37.993Z,98616.99
2023-03-30T23:59:05.550Z,98618.02
